sensor_id;sensor_type;location;lat;lon;timestamp;P1;durP1;ratioP1;P2;durP2;ratioP2
64915;SDS011;51427;-27.442;153.014;2023-04-24T00:01:44;6.57;;;1.10;;
64915;SDS011;51427;-27.442;153.014;2023-04-24T00:04:11;4.63;;;1.77;;
64915;SDS011;51427;-27.442;153.014;2023-04-24T00:06:42;5.68;;;1.48;;
64915;SDS011;51427;-27.442;153.014;2023-04-24T00:09:09;5.90;;;1.33;;
64915;SDS011;51427;-27.442;153.014;2023-04-24T00:11:37;6.03;;;1.50;;
64915;SDS011;51427;-27.442;153.014;2023-04-24T00:14:04;7.57;;;1.50;;
64915;SDS011;51427;-27.442;153.014;2023-04-24T00:16:31;7.35;;;1.40;;
64915;SDS011;51427;-27.442;153.014;2023-04-24T00:18:58;8.43;;;2.03;;
64915;SDS011;51427;-27.442;153.014;2023-04-24T00:21:26;7.70;;;1.75;;
64915;SDS011;51427;-27.442;153.014;2023-04-24T00:23:53;9.75;;;1.98;;
64915;SDS011;51427;-27.442;153.014;2023-04-24T00:26:20;8.95;;;2.05;;
64915;SDS011;51427;-27.442;153.014;2023-04-24T00:28:48;11.25;;;1.90;;
64915;SDS011;51427;-27.442;153.014;2023-04-24T00:31:15;7.55;;;2.08;;
64915;SDS011;51427;-27.442;153.014;2023-04-24T00:33:43;11.98;;;2.00;;
64915;SDS011;51427;-27.442;153.014;2023-04-24T00:36:10;6.07;;;1.60;;
64915;SDS011;51427;-27.442;153.014;2023-04-24T00:38:37;12.20;;;1.83;;
64915;SDS011;51427;-27.442;153.014;2023-04-24T00:41:05;5.82;;;1.58;;
64915;SDS011;51427;-27.442;153.014;2023-04-24T00:43:32;8.73;;;1.90;;
64915;SDS011;51427;-27.442;153.014;2023-04-24T00:46:00;8.60;;;2.35;;
64915;SDS011;51427;-27.442;153.014;2023-04-24T00:48:27;9.07;;;1.75;;
64915;SDS011;51427;-27.442;153.014;2023-04-24T00:50:55;8.60;;;2.10;;
64915;SDS011;51427;-27.442;153.014;2023-04-24T00:53:24;10.23;;;2.58;;
64915;SDS011;51427;-27.442;153.014;2023-04-24T00:55:51;8.68;;;2.28;;
64915;SDS011;51427;-27.442;153.014;2023-04-24T00:58:18;10.05;;;2.08;;
64915;SDS011;51427;-27.442;153.014;2023-04-24T01:00:46;10.13;;;1.75;;
64915;SDS011;51427;-27.442;153.014;2023-04-24T01:03:15;10.25;;;2.53;;
64915;SDS011;51427;-27.442;153.014;2023-04-24T01:05:44;11.20;;;2.17;;
64915;SDS011;51427;-27.442;153.014;2023-04-24T01:08:11;10.82;;;1.83;;
64915;SDS011;51427;-27.442;153.014;2023-04-24T01:10:39;13.55;;;2.60;;
64915;SDS011;51427;-27.442;153.014;2023-04-24T01:13:07;9.60;;;2.47;;
64915;SDS011;51427;-27.442;153.014;2023-04-24T01:15:35;9.50;;;2.20;;
64915;SDS011;51427;-27.442;153.014;2023-04-24T01:18:03;7.47;;;1.92;;
64915;SDS011;51427;-27.442;153.014;2023-04-24T01:20:30;9.38;;;2.03;;
64915;SDS011;51427;-27.442;153.014;2023-04-24T01:22:58;9.70;;;2.33;;
64915;SDS011;51427;-27.442;153.014;2023-04-24T01:25:26;5.82;;;1.83;;
64915;SDS011;51427;-27.442;153.014;2023-04-24T01:27:54;7.45;;;1.45;;
64915;SDS011;51427;-27.442;153.014;2023-04-24T01:30:21;11.50;;;2.00;;
64915;SDS011;51427;-27.442;153.014;2023-04-24T01:32:48;5.40;;;1.92;;
64915;SDS011;51427;-27.442;153.014;2023-04-24T01:35:17;11.35;;;2.35;;
64915;SDS011;51427;-27.442;153.014;2023-04-24T01:37:44;9.55;;;1.88;;
64915;SDS011;51427;-27.442;153.014;2023-04-24T01:40:11;11.60;;;2.35;;
64915;SDS011;51427;-27.442;153.014;2023-04-24T01:42:40;11.68;;;2.20;;
64915;SDS011;51427;-27.442;153.014;2023-04-24T01:45:09;11.80;;;2.00;;
64915;SDS011;51427;-27.442;153.014;2023-04-24T01:47:38;8.35;;;2.00;;
64915;SDS011;51427;-27.442;153.014;2023-04-24T01:50:06;10.38;;;1.75;;
64915;SDS011;51427;-27.442;153.014;2023-04-24T01:52:34;6.35;;;1.70;;
64915;SDS011;51427;-27.442;153.014;2023-04-24T01:55:04;7.53;;;1.95;;
64915;SDS011;51427;-27.442;153.014;2023-04-24T01:57:32;6.45;;;2.00;;
64915;SDS011;51427;-27.442;153.014;2023-04-24T02:00:00;6.90;;;1.58;;
64915;SDS011;51427;-27.442;153.014;2023-04-24T02:02:29;7.30;;;1.88;;
64915;SDS011;51427;-27.442;153.014;2023-04-24T02:04:56;9.18;;;2.13;;
64915;SDS011;51427;-27.442;153.014;2023-04-24T02:07:24;7.82;;;1.85;;
64915;SDS011;51427;-27.442;153.014;2023-04-24T02:09:51;8.52;;;1.83;;
64915;SDS011;51427;-27.442;153.014;2023-04-24T02:12:18;9.43;;;1.73;;
64915;SDS011;51427;-27.442;153.014;2023-04-24T02:14:45;9.98;;;1.63;;
64915;SDS011;51427;-27.442;153.014;2023-04-24T02:17:12;8.23;;;2.08;;
64915;SDS011;51427;-27.442;153.014;2023-04-24T02:19:41;10.60;;;2.47;;
64915;SDS011;51427;-27.442;153.014;2023-04-24T02:22:08;12.18;;;2.50;;
64915;SDS011;51427;-27.442;153.014;2023-04-24T02:24:36;11.02;;;2.30;;
64915;SDS011;51427;-27.442;153.014;2023-04-24T02:27:04;10.75;;;2.22;;
64915;SDS011;51427;-27.442;153.014;2023-04-24T02:29:32;11.15;;;2.45;;
64915;SDS011;51427;-27.442;153.014;2023-04-24T02:31:59;11.82;;;2.33;;
64915;SDS011;51427;-27.442;153.014;2023-04-24T02:34:26;12.10;;;2.45;;
64915;SDS011;51427;-27.442;153.014;2023-04-24T02:36:53;9.80;;;2.53;;
64915;SDS011;51427;-27.442;153.014;2023-04-24T02:39:20;11.27;;;2.65;;
64915;SDS011;51427;-27.442;153.014;2023-04-24T02:41:48;9.63;;;1.95;;
64915;SDS011;51427;-27.442;153.014;2023-04-24T02:44:15;9.98;;;2.03;;
64915;SDS011;51427;-27.442;153.014;2023-04-24T02:46:43;7.60;;;2.05;;
64915;SDS011;51427;-27.442;153.014;2023-04-24T02:49:10;10.95;;;2.28;;
64915;SDS011;51427;-27.442;153.014;2023-04-24T02:51:37;10.98;;;2.42;;
64915;SDS011;51427;-27.442;153.014;2023-04-24T02:54:09;12.57;;;2.20;;
64915;SDS011;51427;-27.442;153.014;2023-04-24T02:56:36;10.38;;;2.60;;
64915;SDS011;51427;-27.442;153.014;2023-04-24T02:59:03;8.88;;;2.15;;
64915;SDS011;51427;-27.442;153.014;2023-04-24T03:01:31;8.57;;;2.10;;
64915;SDS011;51427;-27.442;153.014;2023-04-24T03:03:58;7.63;;;1.70;;
64915;SDS011;51427;-27.442;153.014;2023-04-24T03:06:25;12.15;;;1.92;;
64915;SDS011;51427;-27.442;153.014;2023-04-24T03:08:52;9.38;;;1.88;;
64915;SDS011;51427;-27.442;153.014;2023-04-24T03:11:20;4.93;;;1.23;;
64915;SDS011;51427;-27.442;153.014;2023-04-24T03:13:47;8.75;;;1.70;;
64915;SDS011;51427;-27.442;153.014;2023-04-24T03:16:14;9.07;;;1.52;;
64915;SDS011;51427;-27.442;153.014;2023-04-24T03:18:41;5.20;;;1.70;;
64915;SDS011;51427;-27.442;153.014;2023-04-24T03:21:09;8.57;;;2.00;;
64915;SDS011;51427;-27.442;153.014;2023-04-24T03:23:36;7.80;;;1.58;;
64915;SDS011;51427;-27.442;153.014;2023-04-24T03:26:03;7.32;;;1.55;;
64915;SDS011;51427;-27.442;153.014;2023-04-24T03:28:31;10.38;;;1.83;;
64915;SDS011;51427;-27.442;153.014;2023-04-24T03:30:58;9.40;;;2.17;;
64915;SDS011;51427;-27.442;153.014;2023-04-24T03:33:25;7.97;;;1.67;;
64915;SDS011;51427;-27.442;153.014;2023-04-24T03:35:52;11.85;;;2.28;;
64915;SDS011;51427;-27.442;153.014;2023-04-24T03:38:19;6.13;;;1.60;;
64915;SDS011;51427;-27.442;153.014;2023-04-24T03:40:47;8.95;;;2.17;;
64915;SDS011;51427;-27.442;153.014;2023-04-24T03:43:14;7.35;;;1.95;;
64915;SDS011;51427;-27.442;153.014;2023-04-24T03:45:41;7.10;;;1.63;;
64915;SDS011;51427;-27.442;153.014;2023-04-24T03:48:08;5.82;;;1.48;;
64915;SDS011;51427;-27.442;153.014;2023-04-24T03:50:36;6.63;;;1.58;;
64915;SDS011;51427;-27.442;153.014;2023-04-24T03:53:03;6.95;;;1.58;;
64915;SDS011;51427;-27.442;153.014;2023-04-24T03:55:30;7.15;;;1.90;;
64915;SDS011;51427;-27.442;153.014;2023-04-24T03:57:57;8.13;;;1.80;;
64915;SDS011;51427;-27.442;153.014;2023-04-24T04:00:25;8.82;;;2.00;;
64915;SDS011;51427;-27.442;153.014;2023-04-24T04:02:53;8.80;;;2.03;;
64915;SDS011;51427;-27.442;153.014;2023-04-24T04:05:20;5.57;;;1.50;;
64915;SDS011;51427;-27.442;153.014;2023-04-24T04:07:47;6.97;;;1.92;;
64915;SDS011;51427;-27.442;153.014;2023-04-24T04:10:15;8.20;;;2.28;;
64915;SDS011;51427;-27.442;153.014;2023-04-24T04:12:42;8.27;;;1.80;;
64915;SDS011;51427;-27.442;153.014;2023-04-24T04:15:10;10.13;;;2.28;;
64915;SDS011;51427;-27.442;153.014;2023-04-24T04:17:37;11.48;;;1.92;;
64915;SDS011;51427;-27.442;153.014;2023-04-24T04:20:04;7.10;;;1.85;;
64915;SDS011;51427;-27.442;153.014;2023-04-24T04:22:35;9.10;;;1.85;;
64915;SDS011;51427;-27.442;153.014;2023-04-24T04:25:03;5.82;;;1.35;;
64915;SDS011;51427;-27.442;153.014;2023-04-24T04:27:30;9.98;;;1.45;;
64915;SDS011;51427;-27.442;153.014;2023-04-24T04:30:01;4.32;;;1.67;;
64915;SDS011;51427;-27.442;153.014;2023-04-24T04:32:33;7.45;;;2.05;;
64915;SDS011;51427;-27.442;153.014;2023-04-24T04:35:01;7.88;;;1.65;;
64915;SDS011;51427;-27.442;153.014;2023-04-24T04:37:29;5.35;;;1.27;;
64915;SDS011;51427;-27.442;153.014;2023-04-24T04:39:57;4.60;;;0.90;;
64915;SDS011;51427;-27.442;153.014;2023-04-24T04:42:25;3.42;;;0.80;;
64915;SDS011;51427;-27.442;153.014;2023-04-24T04:44:56;3.38;;;0.68;;
64915;SDS011;51427;-27.442;153.014;2023-04-24T04:47:23;2.90;;;0.60;;
64915;SDS011;51427;-27.442;153.014;2023-04-24T04:49:50;2.88;;;1.23;;
64915;SDS011;51427;-27.442;153.014;2023-04-24T04:52:18;1.70;;;0.52;;
64915;SDS011;51427;-27.442;153.014;2023-04-24T04:54:45;1.17;;;0.60;;
64915;SDS011;51427;-27.442;153.014;2023-04-24T04:57:12;1.45;;;0.65;;
64915;SDS011;51427;-27.442;153.014;2023-04-24T04:59:40;5.15;;;1.00;;
64915;SDS011;51427;-27.442;153.014;2023-04-24T05:02:07;6.07;;;1.10;;
64915;SDS011;51427;-27.442;153.014;2023-04-24T05:04:34;3.60;;;1.25;;
64915;SDS011;51427;-27.442;153.014;2023-04-24T05:07:03;4.22;;;0.95;;
64915;SDS011;51427;-27.442;153.014;2023-04-24T05:09:31;3.88;;;1.35;;
64915;SDS011;51427;-27.442;153.014;2023-04-24T05:11:58;3.72;;;1.00;;
64915;SDS011;51427;-27.442;153.014;2023-04-24T05:14:25;4.40;;;1.08;;
64915;SDS011;51427;-27.442;153.014;2023-04-24T05:16:53;6.20;;;1.20;;
64915;SDS011;51427;-27.442;153.014;2023-04-24T05:19:20;6.15;;;1.40;;
64915;SDS011;51427;-27.442;153.014;2023-04-24T05:21:47;4.25;;;1.40;;
64915;SDS011;51427;-27.442;153.014;2023-04-24T05:24:14;7.53;;;1.70;;
64915;SDS011;51427;-27.442;153.014;2023-04-24T05:26:42;6.05;;;1.60;;
64915;SDS011;51427;-27.442;153.014;2023-04-24T05:29:09;6.05;;;1.50;;
64915;SDS011;51427;-27.442;153.014;2023-04-24T05:31:37;6.90;;;1.30;;
64915;SDS011;51427;-27.442;153.014;2023-04-24T05:34:04;8.75;;;1.88;;
64915;SDS011;51427;-27.442;153.014;2023-04-24T05:36:32;7.70;;;1.65;;
64915;SDS011;51427;-27.442;153.014;2023-04-24T05:38:59;9.15;;;1.75;;
64915;SDS011;51427;-27.442;153.014;2023-04-24T05:41:26;5.07;;;1.10;;
64915;SDS011;51427;-27.442;153.014;2023-04-24T05:43:53;6.65;;;1.23;;
64915;SDS011;51427;-27.442;153.014;2023-04-24T05:46:21;5.65;;;1.40;;
64915;SDS011;51427;-27.442;153.014;2023-04-24T05:48:48;4.80;;;1.23;;
64915;SDS011;51427;-27.442;153.014;2023-04-24T05:51:15;6.90;;;1.40;;
64915;SDS011;51427;-27.442;153.014;2023-04-24T05:53:42;5.07;;;1.00;;
64915;SDS011;51427;-27.442;153.014;2023-04-24T05:56:10;6.82;;;1.42;;
64915;SDS011;51427;-27.442;153.014;2023-04-24T05:58:37;4.93;;;1.38;;
64915;SDS011;51427;-27.442;153.014;2023-04-24T06:01:05;6.78;;;1.77;;
64915;SDS011;51427;-27.442;153.014;2023-04-24T06:03:32;5.03;;;1.25;;
64915;SDS011;51427;-27.442;153.014;2023-04-24T06:05:59;6.72;;;1.50;;
64915;SDS011;51427;-27.442;153.014;2023-04-24T06:08:27;7.53;;;1.58;;
64915;SDS011;51427;-27.442;153.014;2023-04-24T06:10:54;8.32;;;1.90;;
64915;SDS011;51427;-27.442;153.014;2023-04-24T06:13:21;6.88;;;1.50;;
64915;SDS011;51427;-27.442;153.014;2023-04-24T06:15:48;9.05;;;1.77;;
64915;SDS011;51427;-27.442;153.014;2023-04-24T06:18:15;6.10;;;1.42;;
64915;SDS011;51427;-27.442;153.014;2023-04-24T06:20:43;9.18;;;2.00;;
64915;SDS011;51427;-27.442;153.014;2023-04-24T06:23:11;7.65;;;1.88;;
64915;SDS011;51427;-27.442;153.014;2023-04-24T06:25:38;6.15;;;1.67;;
64915;SDS011;51427;-27.442;153.014;2023-04-24T06:28:05;12.13;;;2.03;;
64915;SDS011;51427;-27.442;153.014;2023-04-24T06:30:33;8.32;;;2.00;;
64915;SDS011;51427;-27.442;153.014;2023-04-24T06:33:00;6.63;;;1.90;;
64915;SDS011;51427;-27.442;153.014;2023-04-24T06:35:27;7.82;;;1.65;;
64915;SDS011;51427;-27.442;153.014;2023-04-24T06:37:54;7.90;;;2.10;;
64915;SDS011;51427;-27.442;153.014;2023-04-24T06:40:22;10.40;;;2.25;;
64915;SDS011;51427;-27.442;153.014;2023-04-24T06:42:50;7.55;;;1.63;;
64915;SDS011;51427;-27.442;153.014;2023-04-24T06:45:17;7.97;;;1.95;;
64915;SDS011;51427;-27.442;153.014;2023-04-24T06:47:44;5.25;;;1.63;;
64915;SDS011;51427;-27.442;153.014;2023-04-24T06:50:11;6.10;;;1.70;;
64915;SDS011;51427;-27.442;153.014;2023-04-24T06:52:39;6.95;;;1.48;;
64915;SDS011;51427;-27.442;153.014;2023-04-24T06:55:06;5.40;;;1.02;;
64915;SDS011;51427;-27.442;153.014;2023-04-24T06:57:34;5.22;;;1.17;;
64915;SDS011;51427;-27.442;153.014;2023-04-24T07:00:02;6.95;;;1.50;;
64915;SDS011;51427;-27.442;153.014;2023-04-24T07:02:32;8.05;;;1.48;;
64915;SDS011;51427;-27.442;153.014;2023-04-24T07:04:59;4.50;;;1.25;;
64915;SDS011;51427;-27.442;153.014;2023-04-24T07:07:27;7.68;;;1.15;;
64915;SDS011;51427;-27.442;153.014;2023-04-24T07:09:54;1.77;;;0.88;;
64915;SDS011;51427;-27.442;153.014;2023-04-24T07:12:21;6.45;;;1.15;;
64915;SDS011;51427;-27.442;153.014;2023-04-24T07:14:50;3.47;;;1.00;;
64915;SDS011;51427;-27.442;153.014;2023-04-24T07:17:17;3.78;;;0.90;;
64915;SDS011;51427;-27.442;153.014;2023-04-24T07:19:44;7.40;;;1.10;;
64915;SDS011;51427;-27.442;153.014;2023-04-24T07:22:12;6.70;;;1.48;;
64915;SDS011;51427;-27.442;153.014;2023-04-24T07:24:45;5.05;;;1.20;;
64915;SDS011;51427;-27.442;153.014;2023-04-24T07:27:12;4.28;;;1.00;;
64915;SDS011;51427;-27.442;153.014;2023-04-24T07:29:40;3.65;;;0.95;;
64915;SDS011;51427;-27.442;153.014;2023-04-24T07:32:07;4.93;;;1.73;;
64915;SDS011;51427;-27.442;153.014;2023-04-24T07:34:35;3.92;;;1.00;;
64915;SDS011;51427;-27.442;153.014;2023-04-24T07:37:02;4.35;;;1.02;;
64915;SDS011;51427;-27.442;153.014;2023-04-24T07:39:30;5.18;;;1.02;;
64915;SDS011;51427;-27.442;153.014;2023-04-24T07:41:57;5.68;;;1.42;;
64915;SDS011;51427;-27.442;153.014;2023-04-24T07:44:25;3.78;;;1.10;;
64915;SDS011;51427;-27.442;153.014;2023-04-24T07:46:52;4.40;;;0.80;;
64915;SDS011;51427;-27.442;153.014;2023-04-24T07:49:19;3.55;;;0.88;;
64915;SDS011;51427;-27.442;153.014;2023-04-24T07:51:46;5.53;;;1.02;;
64915;SDS011;51427;-27.442;153.014;2023-04-24T07:54:15;4.03;;;0.90;;
64915;SDS011;51427;-27.442;153.014;2023-04-24T07:56:43;3.13;;;0.80;;
64915;SDS011;51427;-27.442;153.014;2023-04-24T07:59:10;4.55;;;0.75;;
64915;SDS011;51427;-27.442;153.014;2023-04-24T08:01:37;4.13;;;0.82;;
64915;SDS011;51427;-27.442;153.014;2023-04-24T08:04:05;2.47;;;0.73;;
64915;SDS011;51427;-27.442;153.014;2023-04-24T08:06:32;5.30;;;1.17;;
64915;SDS011;51427;-27.442;153.014;2023-04-24T08:08:59;2.60;;;1.02;;
64915;SDS011;51427;-27.442;153.014;2023-04-24T08:11:27;4.00;;;0.90;;
64915;SDS011;51427;-27.442;153.014;2023-04-24T08:13:54;2.92;;;0.93;;
64915;SDS011;51427;-27.442;153.014;2023-04-24T08:16:21;4.22;;;1.10;;
64915;SDS011;51427;-27.442;153.014;2023-04-24T08:18:52;4.35;;;1.17;;
64915;SDS011;51427;-27.442;153.014;2023-04-24T08:21:20;2.95;;;1.00;;
64915;SDS011;51427;-27.442;153.014;2023-04-24T08:23:47;2.63;;;0.70;;
64915;SDS011;51427;-27.442;153.014;2023-04-24T08:26:14;3.22;;;1.20;;
64915;SDS011;51427;-27.442;153.014;2023-04-24T08:28:42;3.58;;;1.02;;
64915;SDS011;51427;-27.442;153.014;2023-04-24T08:31:10;3.97;;;0.80;;
64915;SDS011;51427;-27.442;153.014;2023-04-24T08:33:37;5.93;;;1.52;;
64915;SDS011;51427;-27.442;153.014;2023-04-24T08:36:06;8.60;;;1.83;;
64915;SDS011;51427;-27.442;153.014;2023-04-24T08:38:34;6.80;;;1.50;;
64915;SDS011;51427;-27.442;153.014;2023-04-24T08:41:01;6.97;;;1.38;;
64915;SDS011;51427;-27.442;153.014;2023-04-24T08:43:30;7.75;;;1.70;;
64915;SDS011;51427;-27.442;153.014;2023-04-24T08:45:59;5.20;;;1.30;;
64915;SDS011;51427;-27.442;153.014;2023-04-24T08:48:27;8.43;;;1.90;;
64915;SDS011;51427;-27.442;153.014;2023-04-24T08:50:54;5.57;;;1.33;;
64915;SDS011;51427;-27.442;153.014;2023-04-24T08:53:22;3.60;;;1.35;;
64915;SDS011;51427;-27.442;153.014;2023-04-24T08:55:51;5.88;;;1.92;;
64915;SDS011;51427;-27.442;153.014;2023-04-24T08:58:22;5.85;;;1.63;;
64915;SDS011;51427;-27.442;153.014;2023-04-24T09:00:54;8.02;;;1.58;;
64915;SDS011;51427;-27.442;153.014;2023-04-24T09:03:21;8.63;;;1.38;;
64915;SDS011;51427;-27.442;153.014;2023-04-24T09:05:49;6.30;;;1.70;;
64915;SDS011;51427;-27.442;153.014;2023-04-24T09:08:18;10.68;;;1.63;;
64915;SDS011;51427;-27.442;153.014;2023-04-24T09:10:49;5.78;;;1.58;;
64915;SDS011;51427;-27.442;153.014;2023-04-24T09:13:17;7.82;;;1.63;;
64915;SDS011;51427;-27.442;153.014;2023-04-24T09:15:48;8.23;;;1.92;;
64915;SDS011;51427;-27.442;153.014;2023-04-24T09:18:16;5.55;;;1.60;;
64915;SDS011;51427;-27.442;153.014;2023-04-24T09:21:00;9.48;;;2.20;;
64915;SDS011;51427;-27.442;153.014;2023-04-24T09:23:29;8.38;;;1.77;;
64915;SDS011;51427;-27.442;153.014;2023-04-24T09:25:58;8.52;;;1.95;;
64915;SDS011;51427;-27.442;153.014;2023-04-24T09:28:35;5.18;;;1.90;;
64915;SDS011;51427;-27.442;153.014;2023-04-24T09:31:14;6.50;;;1.88;;
64915;SDS011;51427;-27.442;153.014;2023-04-24T09:36:28;7.38;;;2.00;;
64915;SDS011;51427;-27.442;153.014;2023-04-24T09:38:59;6.10;;;1.80;;
64915;SDS011;51427;-27.442;153.014;2023-04-24T09:41:27;5.50;;;1.90;;
64915;SDS011;51427;-27.442;153.014;2023-04-24T09:43:55;3.78;;;1.80;;
64915;SDS011;51427;-27.442;153.014;2023-04-24T09:46:32;6.43;;;1.95;;
64915;SDS011;51427;-27.442;153.014;2023-04-24T09:49:13;11.73;;;2.20;;
64915;SDS011;51427;-27.442;153.014;2023-04-24T09:51:42;9.82;;;2.15;;
64915;SDS011;51427;-27.442;153.014;2023-04-24T09:54:14;7.13;;;2.38;;
64915;SDS011;51427;-27.442;153.014;2023-04-24T09:56:42;5.15;;;1.75;;
64915;SDS011;51427;-27.442;153.014;2023-04-24T09:59:11;5.70;;;1.65;;
64915;SDS011;51427;-27.442;153.014;2023-04-24T10:01:39;5.78;;;1.85;;
64915;SDS011;51427;-27.442;153.014;2023-04-24T10:04:17;7.70;;;1.80;;
64915;SDS011;51427;-27.442;153.014;2023-04-24T10:06:49;7.05;;;1.67;;
64915;SDS011;51427;-27.442;153.014;2023-04-24T10:09:18;4.07;;;1.48;;
64915;SDS011;51427;-27.442;153.014;2023-04-24T10:11:48;6.40;;;1.75;;
64915;SDS011;51427;-27.442;153.014;2023-04-24T10:14:18;7.47;;;1.50;;
64915;SDS011;51427;-27.442;153.014;2023-04-24T10:16:47;5.03;;;1.90;;
64915;SDS011;51427;-27.442;153.014;2023-04-24T10:19:15;7.00;;;2.10;;
64915;SDS011;51427;-27.442;153.014;2023-04-24T10:21:46;6.10;;;2.05;;
64915;SDS011;51427;-27.442;153.014;2023-04-24T10:24:14;14.50;;;2.40;;
64915;SDS011;51427;-27.442;153.014;2023-04-24T10:26:47;6.35;;;2.03;;
64915;SDS011;51427;-27.442;153.014;2023-04-24T10:29:16;6.57;;;1.85;;
64915;SDS011;51427;-27.442;153.014;2023-04-24T10:31:47;4.28;;;1.70;;
64915;SDS011;51427;-27.442;153.014;2023-04-24T10:34:15;8.45;;;1.85;;
64915;SDS011;51427;-27.442;153.014;2023-04-24T10:36:44;11.43;;;3.30;;
64915;SDS011;51427;-27.442;153.014;2023-04-24T10:39:15;9.18;;;2.92;;
64915;SDS011;51427;-27.442;153.014;2023-04-24T10:41:43;6.22;;;2.15;;
64915;SDS011;51427;-27.442;153.014;2023-04-24T10:44:13;8.35;;;2.95;;
64915;SDS011;51427;-27.442;153.014;2023-04-24T10:46:44;6.10;;;2.45;;
64915;SDS011;51427;-27.442;153.014;2023-04-24T10:49:16;7.10;;;2.97;;
64915;SDS011;51427;-27.442;153.014;2023-04-24T10:51:52;8.45;;;3.85;;
64915;SDS011;51427;-27.442;153.014;2023-04-24T10:54:24;7.28;;;3.10;;
64915;SDS011;51427;-27.442;153.014;2023-04-24T10:56:51;7.22;;;2.60;;
64915;SDS011;51427;-27.442;153.014;2023-04-24T10:59:28;9.85;;;3.17;;
64915;SDS011;51427;-27.442;153.014;2023-04-24T11:02:03;7.00;;;2.80;;
64915;SDS011;51427;-27.442;153.014;2023-04-24T11:04:33;12.82;;;3.55;;
64915;SDS011;51427;-27.442;153.014;2023-04-24T11:07:02;8.13;;;2.95;;
64915;SDS011;51427;-27.442;153.014;2023-04-24T11:09:30;8.13;;;2.95;;
64915;SDS011;51427;-27.442;153.014;2023-04-24T11:12:05;11.18;;;2.28;;
64915;SDS011;51427;-27.442;153.014;2023-04-24T11:17:30;9.77;;;1.70;;
64915;SDS011;51427;-27.442;153.014;2023-04-24T11:20:04;8.23;;;1.73;;
64915;SDS011;51427;-27.442;153.014;2023-04-24T11:22:37;5.60;;;2.08;;
64915;SDS011;51427;-27.442;153.014;2023-04-24T11:25:06;9.02;;;1.50;;
64915;SDS011;51427;-27.442;153.014;2023-04-24T11:27:41;6.88;;;1.80;;
64915;SDS011;51427;-27.442;153.014;2023-04-24T11:30:10;8.02;;;1.88;;
64915;SDS011;51427;-27.442;153.014;2023-04-24T11:35:17;7.40;;;2.30;;
64915;SDS011;51427;-27.442;153.014;2023-04-24T11:37:56;7.95;;;2.25;;
64915;SDS011;51427;-27.442;153.014;2023-04-24T11:40:24;10.73;;;1.75;;
64915;SDS011;51427;-27.442;153.014;2023-04-24T11:42:52;8.20;;;2.13;;
64915;SDS011;51427;-27.442;153.014;2023-04-24T11:45:26;9.02;;;2.17;;
64915;SDS011;51427;-27.442;153.014;2023-04-24T11:47:57;7.97;;;1.98;;
64915;SDS011;51427;-27.442;153.014;2023-04-24T11:50:25;6.28;;;2.00;;
64915;SDS011;51427;-27.442;153.014;2023-04-24T11:52:55;10.70;;;2.60;;
64915;SDS011;51427;-27.442;153.014;2023-04-24T11:57:55;8.07;;;1.60;;
64915;SDS011;51427;-27.442;153.014;2023-04-24T12:00:25;10.50;;;1.63;;
64915;SDS011;51427;-27.442;153.014;2023-04-24T12:05:33;4.32;;;1.50;;
64915;SDS011;51427;-27.442;153.014;2023-04-24T12:08:01;6.82;;;1.35;;
64915;SDS011;51427;-27.442;153.014;2023-04-24T12:10:29;7.13;;;1.70;;
64915;SDS011;51427;-27.442;153.014;2023-04-24T12:12:57;11.88;;;1.75;;
64915;SDS011;51427;-27.442;153.014;2023-04-24T12:15:26;7.78;;;1.55;;
64915;SDS011;51427;-27.442;153.014;2023-04-24T12:17:54;7.85;;;1.33;;
64915;SDS011;51427;-27.442;153.014;2023-04-24T12:22:57;5.18;;;1.55;;
64915;SDS011;51427;-27.442;153.014;2023-04-24T12:25:26;5.97;;;1.58;;
64915;SDS011;51427;-27.442;153.014;2023-04-24T12:30:30;5.85;;;1.48;;
64915;SDS011;51427;-27.442;153.014;2023-04-24T12:32:59;7.40;;;1.70;;
64915;SDS011;51427;-27.442;153.014;2023-04-24T12:35:28;7.20;;;1.95;;
64915;SDS011;51427;-27.442;153.014;2023-04-24T12:38:10;5.15;;;1.42;;
64915;SDS011;51427;-27.442;153.014;2023-04-24T12:40:39;4.93;;;1.90;;
64915;SDS011;51427;-27.442;153.014;2023-04-24T12:43:20;5.90;;;1.50;;
64915;SDS011;51427;-27.442;153.014;2023-04-24T12:45:47;6.75;;;1.67;;
64915;SDS011;51427;-27.442;153.014;2023-04-24T12:48:15;8.52;;;2.30;;
64915;SDS011;51427;-27.442;153.014;2023-04-24T12:50:42;9.65;;;2.67;;
64915;SDS011;51427;-27.442;153.014;2023-04-24T12:53:10;7.03;;;2.72;;
64915;SDS011;51427;-27.442;153.014;2023-04-24T12:55:37;6.95;;;3.00;;
64915;SDS011;51427;-27.442;153.014;2023-04-24T12:58:04;8.98;;;3.25;;
64915;SDS011;51427;-27.442;153.014;2023-04-24T13:00:32;13.95;;;2.97;;
64915;SDS011;51427;-27.442;153.014;2023-04-24T13:02:59;6.80;;;2.45;;
64915;SDS011;51427;-27.442;153.014;2023-04-24T13:05:27;7.38;;;2.88;;
64915;SDS011;51427;-27.442;153.014;2023-04-24T13:07:54;9.73;;;3.70;;
64915;SDS011;51427;-27.442;153.014;2023-04-24T13:10:21;8.77;;;2.50;;
64915;SDS011;51427;-27.442;153.014;2023-04-24T13:12:48;9.55;;;1.83;;
64915;SDS011;51427;-27.442;153.014;2023-04-24T13:15:16;9.40;;;2.17;;
64915;SDS011;51427;-27.442;153.014;2023-04-24T13:17:43;7.10;;;1.50;;
64915;SDS011;51427;-27.442;153.014;2023-04-24T13:20:10;5.18;;;1.60;;
64915;SDS011;51427;-27.442;153.014;2023-04-24T13:22:37;8.15;;;1.58;;
64915;SDS011;51427;-27.442;153.014;2023-04-24T13:25:05;8.20;;;2.47;;
64915;SDS011;51427;-27.442;153.014;2023-04-24T13:27:32;4.05;;;1.40;;
64915;SDS011;51427;-27.442;153.014;2023-04-24T13:30:00;7.32;;;1.38;;
64915;SDS011;51427;-27.442;153.014;2023-04-24T13:32:27;5.72;;;1.88;;
64915;SDS011;51427;-27.442;153.014;2023-04-24T13:34:54;8.02;;;1.90;;
64915;SDS011;51427;-27.442;153.014;2023-04-24T13:37:22;3.83;;;1.38;;
64915;SDS011;51427;-27.442;153.014;2023-04-24T13:39:49;8.90;;;1.60;;
64915;SDS011;51427;-27.442;153.014;2023-04-24T13:42:16;6.32;;;1.42;;
64915;SDS011;51427;-27.442;153.014;2023-04-24T13:44:45;3.60;;;1.45;;
64915;SDS011;51427;-27.442;153.014;2023-04-24T13:47:13;5.82;;;1.92;;
64915;SDS011;51427;-27.442;153.014;2023-04-24T13:49:40;7.25;;;1.92;;
64915;SDS011;51427;-27.442;153.014;2023-04-24T13:52:07;10.75;;;2.15;;
64915;SDS011;51427;-27.442;153.014;2023-04-24T13:54:35;6.35;;;1.70;;
64915;SDS011;51427;-27.442;153.014;2023-04-24T13:57:03;5.65;;;1.50;;
64915;SDS011;51427;-27.442;153.014;2023-04-24T13:59:30;6.80;;;1.90;;
64915;SDS011;51427;-27.442;153.014;2023-04-24T14:01:57;6.43;;;1.58;;
64915;SDS011;51427;-27.442;153.014;2023-04-24T14:04:25;6.82;;;2.17;;
64915;SDS011;51427;-27.442;153.014;2023-04-24T14:06:52;7.05;;;2.80;;
64915;SDS011;51427;-27.442;153.014;2023-04-24T14:09:19;10.80;;;3.05;;
64915;SDS011;51427;-27.442;153.014;2023-04-24T14:11:46;6.05;;;2.35;;
64915;SDS011;51427;-27.442;153.014;2023-04-24T14:14:13;12.77;;;3.00;;
64915;SDS011;51427;-27.442;153.014;2023-04-24T14:16:40;6.88;;;2.20;;
64915;SDS011;51427;-27.442;153.014;2023-04-24T14:19:08;9.10;;;2.42;;
64915;SDS011;51427;-27.442;153.014;2023-04-24T14:21:35;12.50;;;2.25;;
64915;SDS011;51427;-27.442;153.014;2023-04-24T14:24:02;8.15;;;2.45;;
64915;SDS011;51427;-27.442;153.014;2023-04-24T14:26:29;6.88;;;3.10;;
64915;SDS011;51427;-27.442;153.014;2023-04-24T14:28:57;6.57;;;2.60;;
64915;SDS011;51427;-27.442;153.014;2023-04-24T14:31:24;8.43;;;2.45;;